Time;durP1;ratioP1;P1;durP2;ratioP2;P2;SDS_P1;SDS_P2;PMS_P1;PMS_P2;Temp;Humidity;BMP_temperature;BMP_pressure;BME280_temperature;BME280_humidity;BME280_pressure;Samples;Min_cycle;Max_cycle;Signal;HPM_P1;HPM_P2
2022/10/21 00:01:17;;;;;;;;;1.00;1.00;;;;;18.25;84.62;100324.09;5053695;28;45311;-71
2022/10/21 00:03:42;;;;;;;;;2.00;2.00;;;;;18.40;84.22;100333.38;5069408;28;45341;-71
2022/10/21 00:06:09;;;;;;;;;3.00;3.00;;;;;18.42;84.49;100334.09;5069677;28;45377;-71
2022/10/21 00:08:35;;;;;;;;;2.25;2.25;;;;;18.43;84.19;100335.75;5064689;28;46395;-71
2022/10/21 00:11:03;;;;;;;;;1.25;1.25;;;;;18.45;83.66;100336.47;5073956;27;45274;-71
2022/10/21 00:13:30;;;;;;;;;1.67;1.67;;;;;18.29;84.10;100310.13;5067540;27;45452;-71
2022/10/21 00:16:09;;;;;;;;;2.00;2.00;;;;;18.51;84.05;100342.28;5055430;28;45496;-71
2022/10/21 00:18:36;;;;;;;;;2.00;2.00;;;;;18.53;83.69;100338.41;5069221;28;46983;-71
2022/10/21 00:21:07;;;;;;;;;1.00;1.00;;;;;18.25;83.40;100272.81;5053807;28;45356;-70
2022/10/21 00:23:33;;;;;;;;;2.00;2.00;;;;;18.44;84.31;100313.16;5072532;28;45454;-71
2022/10/21 00:25:59;;;;;;;;;2.33;1.00;;;;;18.53;84.24;100321.34;5073769;27;45533;-71
2022/10/21 00:28:26;;;;;;;;;0.33;0.00;;;;;18.55;83.97;100319.34;5071980;27;46436;-71
2022/10/21 00:30:51;;;;;;;;;1.00;1.00;;;;;18.55;83.45;100317.50;5063803;27;45350;-70
2022/10/21 00:33:16;;;;;;;;;2.33;1.00;;;;;18.56;83.74;100315.63;5072554;28;45350;-70
2022/10/21 00:35:42;;;;;;;;;0.00;0.00;;;;;18.32;84.04;100274.72;5074156;28;45455;-71
2022/10/21 00:38:07;;;;;;;;;1.33;1.33;;;;;18.56;83.94;100308.38;5072331;28;47198;-70
2022/10/21 00:40:33;;;;;;;;;2.00;1.00;;;;;18.57;83.90;100306.53;5074081;27;45467;-71
2022/10/21 00:42:59;;;;;;;;;1.25;1.25;;;;;18.15;84.12;100232.34;5065999;27;45309;-70
2022/10/21 00:45:27;;;;;;;;;1.00;1.00;;;;;18.60;83.78;100307.06;5053528;28;45543;-70
2022/10/21 00:48:00;;;;;;;;;1.00;0.33;;;;;18.47;83.63;100291.25;5066809;28;46272;-70
2022/10/21 00:50:52;;;;;;;;;1.00;1.00;;;;;18.58;84.28;100303.66;5073667;27;45510;-70
2022/10/21 00:53:18;;;;;;;;;1.33;0.33;;;;;18.59;83.88;100304.53;5073487;28;45517;-71
2022/10/21 00:55:52;;;;;;;;;0.67;0.67;;;;;18.53;84.00;100283.53;5071634;28;45480;-71
2022/10/21 00:58:22;;;;;;;;;0.67;0.67;;;;;18.57;84.32;100288.50;5063825;28;45343;-71
2022/10/21 01:00:50;;;;;;;;;1.00;1.00;;;;;18.60;84.07;100284.63;5076921;27;45287;-71
2022/10/21 01:03:15;;;;;;;;;2.00;2.00;;;;;18.60;84.14;100279.22;5077084;28;45524;-71
2022/10/21 01:05:42;;;;;;;;;1.33;1.33;;;;;18.59;83.83;100283.75;5075608;28;45342;-71
2022/10/21 01:08:07;;;;;;;;;1.00;1.00;;;;;18.57;83.92;100271.41;5058236;28;48382;-71
2022/10/21 01:10:33;;;;;;;;;1.00;1.00;;;;;18.55;84.23;100268.03;5076770;28;45373;-71
2022/10/21 01:12:58;;;;;;;;;1.67;1.67;;;;;18.56;84.30;100251.66;5071012;27;45356;-72
2022/10/21 01:15:34;;;;;;;;;4.00;2.67;;;;;18.51;84.35;100245.88;5063378;28;45426;-71
2022/10/21 01:18:14;;;;;;;;;1.67;0.67;;;;;18.59;84.69;100248.66;5073417;28;47212;-71
2022/10/21 01:21:15;;;;;;;;;1.33;1.00;;;;;18.64;84.71;100240.94;5057479;28;45431;-71
2022/10/21 01:24:09;;;;;;;;;1.33;1.33;;;;;18.64;84.11;100242.81;5013679;28;45455;-72
2022/10/21 01:27:12;;;;;;;;;1.67;1.67;;;;;18.63;84.13;100241.94;5007024;28;45458;-71
2022/10/21 01:30:08;;;;;;;;;2.67;1.33;;;;;18.17;83.89;100171.00;5013765;28;45363;-71
2022/10/21 01:32:57;;;;;;;;;1.67;1.67;;;;;18.58;84.28;100241.53;5013090;28;47394;-71
2022/10/21 01:35:26;;;;;;;;;2.00;2.00;;;;;18.57;84.14;100241.69;5013830;28;45531;-72
2022/10/21 01:38:23;;;;;;;;;0.67;0.67;;;;;18.43;84.58;100216.94;5013733;28;45607;-72
2022/10/21 01:41:03;;;;;;;;;1.00;1.00;;;;;18.62;84.13;100242.09;5009527;28;45610;-72
2022/10/21 01:43:50;;;;;;;;;3.00;1.33;;;;;18.58;84.46;100260.44;5012589;28;45475;-71
2022/10/21 01:46:27;;;;;;;;;1.00;1.00;;;;;18.60;84.91;100266.56;5013578;28;45628;-71
2022/10/21 01:49:06;;;;;;;;;2.33;2.33;;;;;18.59;84.96;100264.03;4993625;28;45341;-72
2022/10/21 01:51:35;;;;;;;;;1.67;0.00;;;;;18.36;85.56;100229.38;4993484;28;45543;-71
2022/10/21 01:54:12;;;;;;;;;2.67;2.67;;;;;18.44;85.92;100245.66;4992873;28;45373;-72
2022/10/21 01:56:40;;;;;;;;;1.33;1.33;;;;;17.73;85.74;100139.31;4993702;28;45435;-71
2022/10/21 01:59:09;;;;;;;;;1.67;1.67;;;;;18.52;86.17;100280.00;5020486;28;45429;-72
2022/10/21 02:01:37;;;;;;;;;3.00;2.00;;;;;18.48;86.70;100324.50;5062180;28;46545;-71
2022/10/21 02:04:06;;;;;;;;;2.00;2.00;;;;;18.19;87.99;100303.09;5075607;28;45423;-72
2022/10/21 02:06:31;;;;;;;;;2.33;2.00;;;;;18.20;89.26;100308.34;5075185;28;45451;-70
2022/10/21 02:08:57;;;;;;;;;1.00;1.00;;;;;18.40;91.47;100359.53;5056808;28;45712;-71
2022/10/21 02:11:22;;;;;;;;;3.67;2.67;;;;;18.30;95.28;100356.88;5075643;28;45632;-69
2022/10/21 02:13:56;;;;;;;;;5.00;5.00;;;;;18.21;95.13;100349.69;5075888;28;45408;-71
2022/10/21 02:16:27;;;;;;;;;2.00;2.00;;;;;17.80;97.26;100293.31;5075638;28;45453;-72
2022/10/21 02:18:55;;;;;;;;;1.33;1.33;;;;;18.07;97.82;100341.09;5076157;28;45346;-73
2022/10/21 02:21:24;;;;;;;;;3.00;3.00;;;;;17.87;100.00;100309.75;5057748;28;45541;-74
2022/10/21 02:24:34;;;;;;;;;1.00;1.00;;;;;17.93;100.00;100315.44;5058010;28;45808;-74
2022/10/21 02:27:00;;;;;;;;;2.67;2.33;;;;;17.89;100.00;100308.59;5033741;28;45452;-74
2022/10/21 02:29:32;;;;;;;;;3.00;2.00;;;;;17.85;100.00;100309.91;5033398;28;45552;-74
2022/10/21 02:32:13;;;;;;;;;2.33;2.00;;;;;17.82;100.00;100264.34;5033210;28;46329;-74
2022/10/21 02:35:03;;;;;;;;;2.00;2.00;;;;;17.77;100.00;100245.91;5032792;28;45474;-73
2022/10/21 02:37:37;;;;;;;;;6.75;4.75;;;;;17.85;100.00;100220.03;5032897;28;45362;-73
2022/10/21 02:40:14;;;;;;;;;2.00;2.00;;;;;17.51;100.00;100174.81;5033053;28;45443;-73
2022/10/21 02:42:45;;;;;;;;;3.00;3.00;;;;;17.49;100.00;100170.41;5000736;28;45709;-73
2022/10/21 02:45:11;;;;;;;;;2.00;2.00;;;;;17.83;100.00;100221.03;5015795;28;45412;-70
2022/10/21 02:47:38;;;;;;;;;3.00;3.00;;;;;17.86;100.00;100209.09;5032712;28;45488;-69
2022/10/21 02:50:04;;;;;;;;;2.00;2.00;;;;;17.79;100.00;100183.72;5032367;28;45467;-71
2022/10/21 02:52:29;;;;;;;;;4.00;2.33;;;;;17.95;100.00;100197.44;5031987;28;45637;-69
2022/10/21 02:54:54;;;;;;;;;4.00;2.00;;;;;17.99;100.00;100200.66;5032595;28;45556;-69
2022/10/21 02:57:20;;;;;;;;;2.00;2.00;;;;;17.98;100.00;100194.41;5032726;28;45468;-69
2022/10/21 02:59:45;;;;;;;;;2.75;2.00;;;;;17.85;100.00;100184.97;5038935;28;45607;-70
2022/10/21 03:02:10;;;;;;;;;1.00;1.00;;;;;17.95;100.00;100191.16;5074043;28;45948;-70
2022/10/21 03:04:35;;;;;;;;;2.00;2.00;;;;;17.94;100.00;100194.88;5074231;27;45493;-70
2022/10/21 03:07:01;;;;;;;;;3.00;3.00;;;;;17.91;100.00;100193.31;5073816;28;45370;-69
2022/10/21 03:09:26;;;;;;;;;3.00;3.00;;;;;17.91;100.00;100201.41;5073990;28;45396;-69
2022/10/21 03:11:52;;;;;;;;;4.00;3.00;;;;;17.89;100.00;100216.88;5090723;27;47005;-69
2022/10/21 03:14:17;;;;;;;;;3.00;2.00;;;;;17.70;100.00;100203.50;5075063;27;45356;-69
2022/10/21 03:16:42;;;;;;;;;2.00;2.00;;;;;17.77;100.00;100236.97;5073981;28;45315;-68
2022/10/21 03:19:09;;;;;;;;;3.33;2.67;;;;;17.78;100.00;100249.47;5074814;27;45306;-69
2022/10/21 03:21:34;;;;;;;;;5.00;4.00;;;;;17.78;100.00;100253.00;5074933;27;47254;-69
2022/10/21 03:23:59;;;;;;;;;2.67;1.00;;;;;17.79;100.00;100246.63;5074689;27;45504;-69
2022/10/21 03:26:25;;;;;;;;;3.67;2.00;;;;;17.79;100.00;100230.44;5075193;27;45309;-68
2022/10/21 03:28:50;;;;;;;;;2.00;1.67;;;;;17.66;100.00;100229.94;5075103;27;45430;-69
2022/10/21 03:31:15;;;;;;;;;3.00;2.00;;;;;17.71;100.00;100241.13;5074969;27;45424;-69
2022/10/21 03:33:41;;;;;;;;;2.00;2.00;;;;;17.71;100.00;100243.81;5074250;27;45344;-69
2022/10/21 03:36:06;;;;;;;;;4.25;4.25;;;;;17.80;100.00;100242.06;5074890;27;45294;-68
2022/10/21 03:38:32;;;;;;;;;3.00;3.00;;;;;17.79;100.00;100248.47;5074985;27;45325;-69
2022/10/21 03:40:57;;;;;;;;;2.67;2.67;;;;;17.80;100.00;100237.53;5074644;27;45764;-69
2022/10/21 03:43:22;;;;;;;;;4.33;3.00;;;;;17.81;100.00;100236.53;5074484;27;45322;-68
2022/10/21 03:45:48;;;;;;;;;2.67;2.67;;;;;17.80;100.00;100234.84;5074826;27;45285;-68
2022/10/21 03:48:13;;;;;;;;;5.00;4.25;;;;;17.77;100.00;100254.00;5074532;27;45215;-69
2022/10/21 03:50:39;;;;;;;;;3.67;3.67;;;;;17.80;100.00;100261.81;5074808;27;47077;-69
2022/10/21 03:53:04;;;;;;;;;3.00;3.00;;;;;17.62;100.00;100225.84;5074501;28;45329;-69
2022/10/21 03:55:29;;;;;;;;;3.50;3.50;;;;;17.82;100.00;100258.97;5074819;28;45598;-69
2022/10/21 03:57:55;;;;;;;;;3.00;3.00;;;;;17.58;100.00;100235.22;5074550;27;45298;-69
2022/10/21 04:00:21;;;;;;;;;2.00;2.00;;;;;17.82;100.00;100275.16;5074185;27;45437;-69
2022/10/21 04:02:46;;;;;;;;;3.33;1.67;;;;;17.81;100.00;100277.00;5074313;28;45354;-69
2022/10/21 04:05:12;;;;;;;;;2.00;2.00;;;;;17.79;100.00;100272.75;5066587;28;45383;-69
2022/10/21 04:07:37;;;;;;;;;3.67;2.67;;;;;17.77;100.00;100277.44;5074427;28;45415;-69
2022/10/21 04:10:04;;;;;;;;;3.33;3.00;;;;;17.75;100.00;100274.06;5074234;28;46631;-69
2022/10/21 04:12:30;;;;;;;;;1.00;1.00;;;;;17.76;100.00;100271.19;5074044;28;45525;-69
2022/10/21 04:14:55;;;;;;;;;3.00;3.00;;;;;17.75;100.00;100265.97;5040891;28;45379;-69
2022/10/21 04:17:20;;;;;;;;;2.00;2.00;;;;;17.71;100.00;100262.69;5053469;28;46022;-69
2022/10/21 04:19:46;;;;;;;;;4.75;3.25;;;;;17.70;100.00;100270.94;5056563;28;45552;-69
2022/10/21 04:22:11;;;;;;;;;3.00;2.00;;;;;17.73;100.00;100267.94;5072298;28;45333;-69
2022/10/21 04:24:36;;;;;;;;;3.00;3.00;;;;;17.69;100.00;100259.28;5074057;28;45456;-69
2022/10/21 04:27:02;;;;;;;;;2.67;2.67;;;;;17.36;100.00;100202.25;5074184;28;45380;-69
2022/10/21 04:29:27;;;;;;;;;4.67;3.00;;;;;17.68;100.00;100257.63;5074320;28;46263;-69
2022/10/21 04:31:53;;;;;;;;;5.33;2.67;;;;;17.73;100.00;100276.03;5075055;28;45391;-69
2022/10/21 04:34:18;;;;;;;;;2.00;2.00;;;;;17.69;100.00;100264.69;5077801;28;45369;-70
2022/10/21 04:36:43;;;;;;;;;6.25;4.25;;;;;17.71;100.00;100272.63;5077535;28;45491;-69
2022/10/21 04:39:09;;;;;;;;;4.00;4.00;;;;;17.74;100.00;100280.44;5059397;28;45778;-69
2022/10/21 04:41:34;;;;;;;;;3.50;3.50;;;;;17.73;100.00;100274.16;5059831;28;45382;-70
2022/10/21 04:44:00;;;;;;;;;8.50;6.00;;;;;17.78;100.00;100271.88;5077358;28;45719;-69
2022/10/21 04:46:26;;;;;;;;;5.00;5.00;;;;;17.80;100.00;100274.44;5077215;28;45382;-69
2022/10/21 04:48:51;;;;;;;;;4.00;4.00;;;;;17.82;100.00;100281.38;5077210;28;45957;-69
2022/10/21 04:51:16;;;;;;;;;4.75;4.75;;;;;17.86;100.00;100275.69;5077241;28;45541;-69
2022/10/21 04:53:42;;;;;;;;;7.25;5.25;;;;;17.89;100.00;100275.41;5077528;28;45461;-69
2022/10/21 04:56:07;;;;;;;;;8.75;4.25;;;;;17.92;100.00;100280.50;5077245;28;45419;-68
2022/10/21 04:58:32;;;;;;;;;5.00;5.00;;;;;17.94;100.00;100286.63;5076911;28;45361;-71
2022/10/21 05:00:58;;;;;;;;;5.67;4.33;;;;;17.90;100.00;100264.44;5076954;27;45386;-71
2022/10/21 05:03:23;;;;;;;;;6.00;5.00;;;;;18.01;100.00;100279.63;5077371;28;45255;-71
2022/10/21 05:05:50;;;;;;;;;4.00;3.00;;;;;18.03;100.00;100268.66;5037083;28;45427;-71
2022/10/21 05:08:17;;;;;;;;;3.33;3.33;;;;;17.98;100.00;100267.28;5036491;28;45347;-69
2022/10/21 05:10:42;;;;;;;;;4.67;4.67;;;;;17.63;100.00;100222.16;5043142;28;45308;-69
2022/10/21 05:13:07;;;;;;;;;5.00;4.75;;;;;18.06;100.00;100288.13;5076660;28;45456;-69
2022/10/21 05:15:33;;;;;;;;;4.00;4.00;;;;;17.95;100.00;100274.81;5058611;28;45549;-68
2022/10/21 05:17:58;;;;;;;;;6.00;5.00;;;;;17.95;100.00;100285.59;5061535;28;46300;-68
2022/10/21 05:20:24;;;;;;;;;6.33;4.67;;;;;17.98;100.00;100296.13;5056403;28;45323;-68
2022/10/21 05:22:50;;;;;;;;;4.67;4.67;;;;;17.95;100.00;100302.66;5038821;28;45347;-68
2022/10/21 05:25:16;;;;;;;;;6.33;5.00;;;;;17.95;100.00;100296.41;5056531;28;45503;-68
2022/10/21 05:27:42;;;;;;;;;6.67;4.00;;;;;17.63;100.00;100260.75;5054059;28;46084;-68
2022/10/21 05:30:08;;;;;;;;;3.25;3.25;;;;;17.90;100.00;100306.78;5036240;28;45414;-68
2022/10/21 05:32:33;;;;;;;;;3.00;3.00;;;;;17.32;100.00;100214.34;5061826;28;45425;-68
2022/10/21 05:34:58;;;;;;;;;5.75;4.25;;;;;17.88;100.00;100301.50;5055793;28;45533;-68
2022/10/21 05:37:24;;;;;;;;;4.00;4.00;;;;;17.90;100.00;100302.22;5037764;28;46102;-65
2022/10/21 05:39:49;;;;;;;;;4.00;4.00;;;;;17.60;100.00;100257.47;5037748;28;45382;-68
2022/10/21 05:42:14;;;;;;;;;3.75;3.75;;;;;17.29;100.00;100214.63;5037351;28;45389;-68
2022/10/21 05:44:40;;;;;;;;;5.25;5.25;;;;;17.89;100.00;100299.69;5050012;28;45733;-68
2022/10/21 05:47:05;;;;;;;;;5.75;5.50;;;;;17.94;100.00;100300.94;5074509;28;46445;-68
2022/10/21 05:49:30;;;;;;;;;6.75;5.00;;;;;17.62;100.00;100248.25;5075782;28;45410;-68
2022/10/21 05:51:56;;;;;;;;;4.00;4.00;;;;;18.03;100.00;100299.22;5076069;28;45547;-67
2022/10/21 05:54:21;;;;;;;;;3.25;3.00;;;;;18.04;100.00;100302.75;5075991;28;45437;-67
2022/10/21 05:56:47;;;;;;;;;5.75;5.00;;;;;18.05;100.00;100290.97;5075902;28;46081;-68
2022/10/21 05:59:12;;;;;;;;;3.00;3.00;;;;;18.05;100.00;100316.09;5074989;28;45362;-69
2022/10/21 06:01:38;;;;;;;;;4.00;4.00;;;;;17.87;100.00;100290.88;5076131;28;45545;-69
2022/10/21 06:04:03;;;;;;;;;4.67;4.00;;;;;18.03;100.00;100315.41;5070187;28;45499;-68
2022/10/21 06:06:29;;;;;;;;;4.33;4.33;;;;;18.02;100.00;100324.50;5055341;28;46357;-69
2022/10/21 06:08:54;;;;;;;;;5.00;3.67;;;;;17.98;100.00;100334.72;5055529;28;45344;-68
2022/10/21 06:11:19;;;;;;;;;3.00;3.00;;;;;17.99;100.00;100344.53;5046861;28;45719;-68
2022/10/21 06:13:45;;;;;;;;;3.33;3.33;;;;;17.97;100.00;100353.78;5075880;28;45434;-68
2022/10/21 06:16:12;;;;;;;;;5.00;3.00;;;;;17.94;100.00;100351.38;5075722;28;45408;-68
2022/10/21 06:18:38;;;;;;;;;2.67;2.67;;;;;17.90;100.00;100361.59;5075537;28;45410;-69
2022/10/21 06:21:04;;;;;;;;;2.33;2.00;;;;;17.89;100.00;100386.00;5075852;28;45338;-69
2022/10/21 06:23:30;;;;;;;;;3.33;2.00;;;;;17.70;100.00;100363.50;5057972;28;45359;-69
2022/10/21 06:25:58;;;;;;;;;4.00;2.00;;;;;17.89;100.00;100394.09;5075197;28;46306;-69
2022/10/21 06:28:24;;;;;;;;;3.67;2.67;;;;;17.90;100.00;100376.94;5075754;28;45264;-68
2022/10/21 06:30:49;;;;;;;;;3.67;2.00;;;;;17.74;100.00;100350.56;5075796;28;45623;-69
2022/10/21 06:33:14;;;;;;;;;1.00;1.00;;;;;17.93;100.00;100385.59;5075610;28;45314;-69
2022/10/21 06:35:40;;;;;;;;;2.00;1.00;;;;;17.95;100.00;100389.00;5067319;28;45983;-69
2022/10/21 06:38:05;;;;;;;;;3.00;3.00;;;;;17.86;100.00;100362.03;5035120;28;45464;-69
2022/10/21 06:40:30;;;;;;;;;1.00;1.00;;;;;17.92;100.00;100377.66;5035306;28;45412;-69
2022/10/21 06:42:56;;;;;;;;;2.00;2.00;;;;;17.81;100.00;100349.84;5017300;28;45551;-69
2022/10/21 06:45:21;;;;;;;;;3.00;2.00;;;;;17.96;100.00;100352.94;5034990;28;45605;-69
2022/10/21 06:47:46;;;;;;;;;2.00;2.00;;;;;17.39;100.00;100257.72;5033733;28;45394;-68
2022/10/21 06:50:12;;;;;;;;;4.33;1.33;;;;;17.41;100.00;100305.09;5035235;28;45625;-68
2022/10/21 06:52:39;;;;;;;;;5.00;3.33;;;;;17.82;100.00;100392.00;5035284;28;45398;-69
2022/10/21 06:55:05;;;;;;;;;3.00;3.00;;;;;17.59;100.00;100377.16;5016060;28;45577;-68
2022/10/21 06:57:30;;;;;;;;;3.00;3.00;;;;;17.82;100.00;100416.25;5034816;28;45444;-69
2022/10/21 06:59:56;;;;;;;;;4.00;2.67;;;;;17.81;100.00;100419.13;5041410;28;45831;-69
2022/10/21 07:02:23;;;;;;;;;3.00;1.00;;;;;17.86;100.00;100406.03;5064659;28;45347;-69
2022/10/21 07:04:48;;;;;;;;;2.67;2.67;;;;;17.90;100.00;100409.31;5075083;27;45640;-71
2022/10/21 07:07:14;;;;;;;;;1.67;1.67;;;;;17.84;100.00;100413.41;5073720;28;45512;-69
2022/10/21 07:09:39;;;;;;;;;1.00;0.00;;;;;17.82;100.00;100420.81;5074894;27;45380;-69
2022/10/21 07:12:04;;;;;;;;;1.67;1.67;;;;;17.86;100.00;100414.13;5075223;27;45305;-69
2022/10/21 07:14:30;;;;;;;;;1.00;1.00;;;;;17.78;100.00;100401.38;5074869;27;46393;-69
2022/10/21 07:16:55;;;;;;;;;5.33;4.33;;;;;17.90;100.00;100406.59;5074982;27;45411;-68
2022/10/21 07:19:20;;;;;;;;;7.00;2.67;;;;;17.90;100.00;100398.53;5074073;27;45721;-68
2022/10/21 07:21:46;;;;;;;;;1.33;1.33;;;;;17.89;100.00;100416.53;5075013;28;45331;-69
2022/10/21 07:24:12;;;;;;;;;3.00;3.00;;;;;17.86;100.00;100446.50;5074212;27;46150;-68
2022/10/21 07:26:37;;;;;;;;;2.00;1.33;;;;;17.93;100.00;100463.00;5074773;28;45403;-68
2022/10/21 07:29:04;;;;;;;;;3.00;3.00;;;;;17.82;100.00;100450.50;5073502;28;45410;-69
2022/10/21 07:31:32;;;;;;;;;6.00;3.33;;;;;17.75;100.00;100428.66;5056744;28;45374;-68
2022/10/21 07:33:59;;;;;;;;;1.33;1.33;;;;;17.92;100.00;100455.91;5090120;27;46187;-68
2022/10/21 07:36:27;;;;;;;;;3.67;2.00;;;;;17.92;100.00;100445.09;5074533;28;45263;-68
2022/10/21 07:38:54;;;;;;;;;4.00;2.00;;;;;17.90;100.00;100447.09;5074755;27;45327;-68
2022/10/21 07:41:22;;;;;;;;;1.00;1.00;;;;;17.86;100.00;100441.13;5074789;27;45542;-68
2022/10/21 07:43:48;;;;;;;;;2.00;2.00;;;;;17.90;100.00;100444.38;5074434;27;46222;-68
2022/10/21 07:46:14;;;;;;;;;1.00;1.00;;;;;17.70;100.00;100409.34;5074325;27;45709;-68
2022/10/21 07:48:40;;;;;;;;;2.67;2.67;;;;;17.94;100.00;100459.31;5094352;27;45338;-68
2022/10/21 07:51:09;;;;;;;;;1.00;1.00;;;;;17.98;100.00;100458.03;5094860;27;45618;-68
2022/10/21 07:53:35;;;;;;;;;3.00;2.00;;;;;18.00;100.00;100458.72;5094647;27;45856;-69
2022/10/21 07:56:11;;;;;;;;;2.00;2.00;;;;;17.94;100.00;100453.91;5094606;27;45352;-69
2022/10/21 07:58:36;;;;;;;;;1.00;1.00;;;;;18.09;100.00;100474.03;5091392;27;45415;-69
2022/10/21 08:01:05;;;;;;;;;2.00;2.00;;;;;18.10;100.00;100472.19;5074538;27;45416;-69
2022/10/21 08:03:30;;;;;;;;;2.00;2.00;;;;;18.13;100.00;100472.75;5073520;28;47252;-69
2022/10/21 08:05:56;;;;;;;;;1.00;1.00;;;;;17.97;100.00;100429.34;5054418;28;45497;-68
2022/10/21 08:08:23;;;;;;;;;1.00;1.00;;;;;18.23;100.00;100469.16;5058053;28;45437;-69
2022/10/21 08:10:50;;;;;;;;;3.33;2.67;;;;;17.92;100.00;100437.00;5062904;28;45396;-68
2022/10/21 08:13:16;;;;;;;;;3.00;2.00;;;;;18.36;100.00;100493.97;5059198;28;46762;-69
2022/10/21 08:15:46;;;;;;;;;2.67;2.67;;;;;18.49;100.00;100490.97;5077485;28;45383;-69
2022/10/21 08:18:12;;;;;;;;;2.67;2.67;;;;;18.23;100.00;100412.47;5077867;28;45337;-69
2022/10/21 08:20:39;;;;;;;;;3.00;3.00;;;;;18.93;100.00;100482.22;5077697;28;45518;-69
2022/10/21 08:23:05;;;;;;;;;2.67;2.00;;;;;19.14;100.00;100492.75;5077279;28;47363;-68
2022/10/21 08:25:30;;;;;;;;;4.00;2.00;;;;;19.38;100.00;100494.88;5059640;28;45327;-69
2022/10/21 08:27:56;;;;;;;;;1.33;1.33;;;;;19.61;100.00;100495.22;5077607;28;45476;-69
2022/10/21 08:30:21;;;;;;;;;1.00;1.00;;;;;19.75;100.00;100482.16;5077680;28;45541;-69
2022/10/21 08:32:46;;;;;;;;;2.00;2.00;;;;;20.01;97.59;100484.91;5077790;28;47158;-69
2022/10/21 08:35:12;;;;;;;;;2.00;2.00;;;;;19.85;96.79;100463.13;5077488;28;45334;-68
2022/10/21 08:37:37;;;;;;;;;2.00;2.00;;;;;20.13;95.70;100478.19;5077611;28;45393;-69
2022/10/21 08:40:03;;;;;;;;;3.33;2.00;;;;;21.63;90.16;100473.09;5077520;28;45334;-69
2022/10/21 08:42:28;;;;;;;;;1.67;1.67;;;;;25.01;72.03;100448.13;5077605;28;45429;-68
2022/10/21 08:45:06;;;;;;;;;1.33;1.33;;;;;27.42;62.70;100460.59;5077683;28;45417;-68
2022/10/21 08:47:49;;;;;;;;;1.00;1.00;;;;;28.97;55.71;100462.00;5077364;28;45468;-69
2022/10/21 08:50:19;;;;;;;;;1.67;1.67;;;;;26.75;59.60;100470.50;5077449;28;45276;-69
2022/10/21 08:52:53;;;;;;;;;3.00;2.00;;;;;24.89;63.16;100457.84;5077122;28;46210;-68
2022/10/21 08:55:29;;;;;;;;;2.33;2.33;;;;;24.26;65.58;100474.63;5076944;28;45364;-68
2022/10/21 08:57:54;;;;;;;;;3.33;2.00;;;;;23.84;70.09;100464.09;5077127;28;45420;-69
2022/10/21 09:00:23;;;;;;;;;0.00;0.00;;;;;24.18;71.92;100470.09;5070851;27;45393;-68
2022/10/21 09:03:13;;;;;;;;;1.67;1.00;;;;;25.25;67.40;100474.19;5076205;28;45949;-69
2022/10/21 09:06:04;;;;;;;;;1.00;1.00;;;;;25.86;63.39;100479.19;5075860;27;45464;-68
2022/10/21 09:08:51;;;;;;;;;1.67;1.00;;;;;25.57;65.38;100476.63;5075823;28;45398;-69
2022/10/21 09:11:56;;;;;;;;;3.00;3.00;;;;;25.60;62.93;100470.75;5075682;27;45460;-69
2022/10/21 09:14:55;;;;;;;;;2.00;2.00;;;;;26.38;61.57;100468.00;5075761;27;46229;-67
2022/10/21 09:17:58;;;;;;;;;1.33;1.33;;;;;26.04;62.16;100468.84;5075349;28;45341;-69
2022/10/21 09:20:32;;;;;;;;;2.00;1.67;;;;;25.29;62.94;100477.38;5074168;28;45323;-69
2022/10/21 09:23:06;;;;;;;;;0.00;0.00;;;;;24.39;66.32;100365.78;5075746;27;45290;-69
2022/10/21 09:25:33;;;;;;;;;1.00;1.00;;;;;25.98;63.21;100471.28;5075867;27;46222;-68
2022/10/21 09:28:07;;;;;;;;;1.67;1.67;;;;;26.81;61.39;100467.78;5075405;27;45470;-70
2022/10/21 09:30:33;;;;;;;;;2.00;1.00;;;;;26.90;59.88;100452.06;5075661;27;45408;-69
2022/10/21 09:33:01;;;;;;;;;2.00;2.00;;;;;26.53;59.58;100462.38;5073939;28;45332;-69
2022/10/21 09:35:35;;;;;;;;;3.00;1.00;;;;;26.96;57.31;100464.06;5074039;28;46577;-69
2022/10/21 09:38:13;;;;;;;;;2.00;2.00;;;;;27.16;57.97;100455.91;5075158;27;45368;-69
2022/10/21 09:40:38;;;;;;;;;3.00;3.00;;;;;27.51;58.21;100445.66;5075478;27;45392;-69
2022/10/21 09:43:09;;;;;;;;;2.00;2.00;;;;;27.24;54.89;100411.06;5075390;27;45406;-69
2022/10/21 09:45:40;;;;;;;;;3.00;1.00;;;;;26.67;57.61;100434.06;5073660;28;46319;-70
2022/10/21 09:48:14;;;;;;;;;2.67;2.67;;;;;28.47;53.83;100470.00;5090819;27;45343;-68
2022/10/21 09:50:40;;;;;;;;;2.00;2.00;;;;;28.81;52.22;100460.59;5075124;27;45421;-68
2022/10/21 09:53:12;;;;;;;;;2.67;2.67;;;;;28.33;51.89;100456.34;5075009;27;45424;-68
2022/10/21 09:55:39;;;;;;;;;3.00;3.00;;;;;26.93;55.82;100428.91;5074805;27;46316;-69
2022/10/21 09:58:04;;;;;;;;;2.00;1.00;;;;;26.60;58.49;100467.88;5074493;27;45460;-70
2022/10/21 10:00:59;;;;;;;;;3.00;3.00;;;;;26.11;58.56;100481.50;5049961;27;125117;-69
2022/10/21 10:03:35;;;;;;;;;2.00;2.00;;;;;25.18;59.38;100485.06;5026671;28;45411;-69
2022/10/21 10:06:03;;;;;;;;;1.67;1.67;;;;;24.89;62.92;100485.09;5055568;28;45735;-70
2022/10/21 10:08:36;;;;;;;;;3.33;3.33;;;;;24.78;63.94;100475.53;5040857;28;45401;-69
2022/10/21 10:11:07;;;;;;;;;2.00;2.00;;;;;24.47;64.90;100480.16;5075883;28;45405;-69
2022/10/21 10:13:34;;;;;;;;;1.67;1.67;;;;;24.59;64.80;100477.81;5076170;28;45220;-70
2022/10/21 10:16:22;;;;;;;;;3.00;2.00;;;;;24.66;64.92;100475.22;5057375;28;45616;-70
2022/10/21 10:18:51;;;;;;;;;3.00;2.00;;;;;24.61;63.13;100477.63;5035197;28;45555;-71
2022/10/21 10:21:21;;;;;;;;;3.00;3.00;;;;;24.50;63.90;100487.97;5060521;28;45344;-70
2022/10/21 10:23:52;;;;;;;;;2.67;2.67;;;;;24.27;64.93;100458.09;5055428;28;45486;-70
2022/10/21 10:26:30;;;;;;;;;2.67;2.00;;;;;24.30;65.64;100486.84;5055128;28;47156;-71
2022/10/21 10:29:06;;;;;;;;;3.33;3.00;;;;;24.28;64.45;100484.31;5054945;28;45482;-70
2022/10/21 10:31:33;;;;;;;;;2.00;2.00;;;;;24.09;64.93;100495.75;5057761;28;45427;-71
2022/10/21 10:34:04;;;;;;;;;1.67;1.67;;;;;23.76;62.94;100491.41;5057162;28;45338;-70
2022/10/21 10:36:36;;;;;;;;;3.00;3.00;;;;;23.48;65.13;100497.44;5075295;28;45518;-70
2022/10/21 10:39:06;;;;;;;;;2.67;2.67;;;;;23.29;66.14;100467.97;5075664;28;45296;-70
2022/10/21 10:41:39;;;;;;;;;3.00;2.33;;;;;23.24;67.67;100468.53;5075738;28;45430;-70
2022/10/21 10:44:39;;;;;;;;;1.00;1.00;;;;;23.27;67.96;100472.75;5075646;28;45440;-70
2022/10/21 10:47:10;;;;;;;;;1.00;1.00;;;;;23.16;67.23;100472.16;5074903;28;45425;-70
2022/10/21 10:49:38;;;;;;;;;5.00;1.67;;;;;23.01;68.48;100457.59;5075655;28;45456;-70
2022/10/21 10:52:09;;;;;;;;;1.00;1.00;;;;;23.14;68.49;100471.47;5075669;28;45350;-70
2022/10/21 10:54:39;;;;;;;;;1.00;1.00;;;;;23.07;66.87;100465.03;5075535;28;45334;-70
2022/10/21 10:57:24;;;;;;;;;3.00;2.00;;;;;22.91;66.91;100424.34;5055686;28;47669;-70
2022/10/21 11:00:02;;;;;;;;;1.00;1.00;;;;;23.06;65.01;100467.94;5044636;28;45447;-73
2022/10/21 11:02:38;;;;;;;;;2.00;1.00;;;;;22.97;64.70;100469.84;5074728;27;45401;-72
2022/10/21 11:05:17;;;;;;;;;3.67;2.00;;;;;22.71;64.34;100413.09;5075303;27;45353;-71
2022/10/21 11:07:51;;;;;;;;;1.67;1.67;;;;;23.12;65.50;100467.19;5075368;27;45389;-71
2022/10/21 11:10:42;;;;;;;;;0.67;0.00;;;;;23.13;63.26;100460.78;5075201;27;45493;-71
2022/10/21 11:13:12;;;;;;;;;2.00;2.00;;;;;23.07;62.12;100462.31;5075724;27;45294;-72
2022/10/21 11:15:41;;;;;;;;;2.33;2.33;;;;;23.15;65.80;100462.28;5075360;27;45338;-71
2022/10/21 11:18:27;;;;;;;;;0.33;0.33;;;;;23.08;62.64;100464.03;5074986;28;45295;-71
2022/10/21 11:21:01;;;;;;;;;2.00;1.33;;;;;23.05;62.11;100456.19;5090921;27;46132;-71
2022/10/21 11:23:42;;;;;;;;;1.00;1.00;;;;;23.15;61.67;100459.56;5073727;28;45779;-70
2022/10/21 11:26:32;;;;;;;;;1.67;1.67;;;;;23.25;60.04;100464.78;5074766;27;45529;-69
2022/10/21 11:29:05;;;;;;;;;1.00;1.00;;;;;23.37;59.82;100456.19;5073884;28;47763;-70
2022/10/21 11:31:43;;;;;;;;;1.00;1.00;;;;;23.47;59.31;100463.09;5074574;28;45427;-70
2022/10/21 11:34:52;;;;;;;;;1.00;1.00;;;;;23.36;58.31;100460.78;5074859;27;45520;-70